< < Back
Terminal Aerodrome Forecast


Current Version              Previous Versions:   1  2  3  4  5  6  7  8  9  

Terminal Aerodrome Forecast

640
FTUS42 KFFC 231725
TAFCSG
TAF
KCSG 231725Z 2318/2418 12010G16KT P6SM FEW250
     FM241600 12009G15KT P6SM SCT035=

Latest METAR

593
SAUS70 KWBC 240300 RRA
MTRCSG
METAR KCSG 240251Z AUTO 09005KT 10SM CLR 22/11 A3026 RMK AO2 SLP240
T02220111 53008


USA.gov is the U.S. government's official web portal to all federal, state and local government web resources and services.